sensor_id;sensor_type;location;lat;lon;timestamp;pressure;altitude;pressure_sealevel;temperature;humidity
71145;BME280;58812;47.698;17.726;2023-04-01T00:01:56;98920.88;;;7.96;100.00
71145;BME280;58812;47.698;17.726;2023-04-01T00:04:21;98919.22;;;7.95;100.00
71145;BME280;58812;47.698;17.726;2023-04-01T00:06:47;98922.03;;;7.94;100.00
71145;BME280;58812;47.698;17.726;2023-04-01T00:09:13;98918.69;;;7.92;100.00
71145;BME280;58812;47.698;17.726;2023-04-01T00:11:39;98919.72;;;7.91;100.00
71145;BME280;58812;47.698;17.726;2023-04-01T00:14:05;98914.53;;;7.89;100.00
71145;BME280;58812;47.698;17.726;2023-04-01T00:16:30;98905.56;;;7.90;100.00
71145;BME280;58812;47.698;17.726;2023-04-01T00:18:56;98912.72;;;7.90;100.00
71145;BME280;58812;47.698;17.726;2023-04-01T00:21:21;98903.72;;;7.91;100.00
71145;BME280;58812;47.698;17.726;2023-04-01T00:23:49;98906.38;;;7.99;100.00
71145;BME280;58812;47.698;17.726;2023-04-01T00:26:15;98903.41;;;8.02;100.00
71145;BME280;58812;47.698;17.726;2023-04-01T00:28:44;98899.41;;;8.06;100.00
71145;BME280;58812;47.698;17.726;2023-04-01T00:31:10;98895.75;;;8.07;100.00
71145;BME280;58812;47.698;17.726;2023-04-01T00:33:36;98907.91;;;8.10;100.00
71145;BME280;58812;47.698;17.726;2023-04-01T00:36:16;98899.25;;;8.08;100.00
71145;BME280;58812;47.698;17.726;2023-04-01T00:38:42;98898.44;;;8.07;100.00
71145;BME280;58812;47.698;17.726;2023-04-01T00:41:09;98910.41;;;8.03;100.00
71145;BME280;58812;47.698;17.726;2023-04-01T00:43:39;98902.59;;;8.01;100.00
71145;BME280;58812;47.698;17.726;2023-04-01T00:46:05;98904.06;;;7.96;100.00
71145;BME280;58812;47.698;17.726;2023-04-01T00:48:34;98908.88;;;7.92;100.00
71145;BME280;58812;47.698;17.726;2023-04-01T00:51:05;98915.22;;;7.91;100.00
71145;BME280;58812;47.698;17.726;2023-04-01T00:53:33;98907.69;;;7.87;100.00
71145;BME280;58812;47.698;17.726;2023-04-01T00:56:04;98922.34;;;7.83;100.00
71145;BME280;58812;47.698;17.726;2023-04-01T00:58:35;98910.00;;;7.82;100.00
71145;BME280;58812;47.698;17.726;2023-04-01T01:01:02;98919.34;;;7.78;100.00
71145;BME280;58812;47.698;17.726;2023-04-01T01:03:28;98916.16;;;7.74;100.00
71145;BME280;58812;47.698;17.726;2023-04-01T01:12:10;98918.28;;;7.62;100.00
71145;BME280;58812;47.698;17.726;2023-04-01T01:15:12;98908.78;;;7.60;100.00
71145;BME280;58812;47.698;17.726;2023-04-01T01:34:33;98890.63;;;7.55;100.00
71145;BME280;58812;47.698;17.726;2023-04-01T01:37:12;98887.78;;;7.57;100.00
71145;BME280;58812;47.698;17.726;2023-04-01T01:39:42;98878.63;;;7.51;100.00
71145;BME280;58812;47.698;17.726;2023-04-01T01:42:13;98874.28;;;7.50;100.00
71145;BME280;58812;47.698;17.726;2023-04-01T01:44:41;98883.13;;;7.50;100.00
71145;BME280;58812;47.698;17.726;2023-04-01T01:47:09;98868.62;;;7.45;100.00
71145;BME280;58812;47.698;17.726;2023-04-01T01:49:36;98870.59;;;7.43;100.00
71145;BME280;58812;47.698;17.726;2023-04-01T01:52:02;98870.59;;;7.43;100.00
71145;BME280;58812;47.698;17.726;2023-04-01T01:54:28;98874.41;;;7.40;100.00
71145;BME280;58812;47.698;17.726;2023-04-01T01:57:05;98873.09;;;7.36;100.00
71145;BME280;58812;47.698;17.726;2023-04-01T01:59:33;98869.38;;;7.29;100.00
71145;BME280;58812;47.698;17.726;2023-04-01T02:02:03;98874.19;;;7.26;100.00
71145;BME280;58812;47.698;17.726;2023-04-01T02:04:35;98872.16;;;7.19;100.00
71145;BME280;58812;47.698;17.726;2023-04-01T02:07:07;98873.47;;;7.15;100.00
71145;BME280;58812;47.698;17.726;2023-04-01T02:09:34;98869.16;;;7.14;100.00
71145;BME280;58812;47.698;17.726;2023-04-01T02:12:06;98870.16;;;7.13;100.00
71145;BME280;58812;47.698;17.726;2023-04-01T02:14:54;98863.28;;;7.11;100.00
71145;BME280;58812;47.698;17.726;2023-04-01T02:17:24;98864.28;;;7.10;100.00
71145;BME280;58812;47.698;17.726;2023-04-01T02:19:56;98850.81;;;7.11;100.00
71145;BME280;58812;47.698;17.726;2023-04-01T02:22:34;98853.47;;;7.11;100.00
71145;BME280;58812;47.698;17.726;2023-04-01T02:25:09;98846.66;;;7.09;100.00
71145;BME280;58812;47.698;17.726;2023-04-01T02:27:35;98847.84;;;7.06;100.00
71145;BME280;58812;47.698;17.726;2023-04-01T02:30:02;98835.66;;;7.04;100.00
71145;BME280;58812;47.698;17.726;2023-04-01T02:32:29;98838.50;;;7.02;100.00
71145;BME280;58812;47.698;17.726;2023-04-01T02:34:56;98842.81;;;7.03;100.00
71145;BME280;58812;47.698;17.726;2023-04-01T02:37:21;98843.97;;;7.01;100.00
71145;BME280;58812;47.698;17.726;2023-04-01T02:39:48;98837.81;;;7.00;100.00
71145;BME280;58812;47.698;17.726;2023-04-01T02:42:13;98846.47;;;7.02;100.00
71145;BME280;58812;47.698;17.726;2023-04-01T02:44:39;98837.81;;;7.00;100.00
71145;BME280;58812;47.698;17.726;2023-04-01T02:47:04;98835.81;;;7.02;100.00
71145;BME280;58812;47.698;17.726;2023-04-01T02:49:30;98838.78;;;6.99;100.00
71145;BME280;58812;47.698;17.726;2023-04-01T02:51:55;98841.94;;;6.94;100.00
71145;BME280;58812;47.698;17.726;2023-04-01T02:54:21;98846.91;;;6.89;100.00
71145;BME280;58812;47.698;17.726;2023-04-01T02:56:46;98853.34;;;6.87;100.00
71145;BME280;58812;47.698;17.726;2023-04-01T02:59:11;98844.53;;;6.86;100.00
71145;BME280;58812;47.698;17.726;2023-04-01T03:01:37;98848.56;;;6.90;100.00
71145;BME280;58812;47.698;17.726;2023-04-01T03:04:03;98849.72;;;6.88;100.00
71145;BME280;58812;47.698;17.726;2023-04-01T03:06:29;98841.75;;;6.88;100.00
71145;BME280;58812;47.698;17.726;2023-04-01T03:08:55;98846.91;;;6.89;100.00
71145;BME280;58812;47.698;17.726;2023-04-01T03:11:20;98852.72;;;6.93;100.00
71145;BME280;58812;47.698;17.726;2023-04-01T03:13:46;98841.78;;;6.96;100.00
71145;BME280;58812;47.698;17.726;2023-04-01T03:16:12;98846.94;;;6.97;100.00
71145;BME280;58812;47.698;17.726;2023-04-01T03:18:37;98838.97;;;6.97;100.00
71145;BME280;58812;47.698;17.726;2023-04-01T03:21:17;98822.69;;;7.01;100.00
71145;BME280;58812;47.698;17.726;2023-04-01T03:23:43;98830.19;;;7.05;100.00
71145;BME280;58812;47.698;17.726;2023-04-01T03:26:08;98832.53;;;7.08;100.00
71145;BME280;58812;47.698;17.726;2023-04-01T03:28:34;98831.53;;;7.09;100.00
71145;BME280;58812;47.698;17.726;2023-04-01T03:30:59;98833.72;;;7.14;100.00
71145;BME280;58812;47.698;17.726;2023-04-01T03:33:25;98838.38;;;7.12;100.00
71145;BME280;58812;47.698;17.726;2023-04-01T03:35:50;98852.19;;;7.15;100.00
71145;BME280;58812;47.698;17.726;2023-04-01T03:38:17;98853.00;;;7.16;100.00
71145;BME280;58812;47.698;17.726;2023-04-01T03:40:43;98870.88;;;7.23;100.00
71145;BME280;58812;47.698;17.726;2023-04-01T03:43:09;98874.56;;;7.31;100.00
71145;BME280;58812;47.698;17.726;2023-04-01T03:45:35;98874.91;;;7.36;100.00
71145;BME280;58812;47.698;17.726;2023-04-01T03:48:01;98879.06;;;7.38;100.00
71145;BME280;58812;47.698;17.726;2023-04-01T03:50:26;98890.88;;;7.36;100.00
71145;BME280;58812;47.698;17.726;2023-04-01T03:52:52;98897.69;;;7.30;100.00
71145;BME280;58812;47.698;17.726;2023-04-01T03:55:17;98898.31;;;7.24;100.00
71145;BME280;58812;47.698;17.726;2023-04-01T03:57:43;98900.09;;;7.15;100.00
71145;BME280;58812;47.698;17.726;2023-04-01T04:00:09;98911.19;;;7.11;100.00
71145;BME280;58812;47.698;17.726;2023-04-01T04:02:35;98913.66;;;7.04;100.00
71145;BME280;58812;47.698;17.726;2023-04-01T04:05:01;98908.97;;;6.98;100.00
71145;BME280;58812;47.698;17.726;2023-04-01T04:07:27;98901.97;;;6.97;100.00
71145;BME280;58812;47.698;17.726;2023-04-01T04:09:52;98898.94;;;6.92;100.00
71145;BME280;58812;47.698;17.726;2023-04-01T04:12:17;98897.28;;;6.91;100.00
71145;BME280;58812;47.698;17.726;2023-04-01T04:14:43;98889.63;;;6.88;100.00
71145;BME280;58812;47.698;17.726;2023-04-01T04:17:10;98887.28;;;6.85;100.00
71145;BME280;58812;47.698;17.726;2023-04-01T04:19:41;98879.47;;;6.83;100.00
71145;BME280;58812;47.698;17.726;2023-04-01T04:22:07;98880.59;;;6.81;100.00
71145;BME280;58812;47.698;17.726;2023-04-01T04:24:34;98873.44;;;6.81;100.00
71145;BME280;58812;47.698;17.726;2023-04-01T04:27:00;98882.94;;;6.84;100.00
71145;BME280;58812;47.698;17.726;2023-04-01T04:29:25;98882.78;;;6.85;100.00
71145;BME280;58812;47.698;17.726;2023-04-01T04:31:50;98887.81;;;6.88;100.00
71145;BME280;58812;47.698;17.726;2023-04-01T04:34:16;98878.00;;;6.89;100.00
71145;BME280;58812;47.698;17.726;2023-04-01T04:36:43;98867.19;;;6.90;100.00
71145;BME280;58812;47.698;17.726;2023-04-01T04:39:09;98864.19;;;6.93;100.00
71145;BME280;58812;47.698;17.726;2023-04-01T04:41:37;98865.06;;;6.94;100.00
71145;BME280;58812;47.698;17.726;2023-04-01T04:44:02;98859.75;;;6.94;100.00
71145;BME280;58812;47.698;17.726;2023-04-01T04:46:28;98867.56;;;6.95;100.00
71145;BME280;58812;47.698;17.726;2023-04-01T04:48:54;98869.38;;;6.95;100.00
71145;BME280;58812;47.698;17.726;2023-04-01T04:51:19;98876.03;;;6.99;100.00
71145;BME280;58812;47.698;17.726;2023-04-01T04:53:46;98876.75;;;7.01;100.00
71145;BME280;58812;47.698;17.726;2023-04-01T04:56:12;98877.25;;;7.05;100.00
71145;BME280;58812;47.698;17.726;2023-04-01T04:58:40;98874.44;;;7.06;100.00
71145;BME280;58812;47.698;17.726;2023-04-01T05:01:13;98876.59;;;7.11;100.00
71145;BME280;58812;47.698;17.726;2023-04-01T05:03:40;98871.81;;;7.14;100.00
71145;BME280;58812;47.698;17.726;2023-04-01T05:06:06;98895.13;;;7.20;100.00
71145;BME280;58812;47.698;17.726;2023-04-01T05:08:33;98886.50;;;7.27;100.00
71145;BME280;58812;47.698;17.726;2023-04-01T05:10:59;98888.37;;;7.34;100.00
71145;BME280;58812;47.698;17.726;2023-04-01T05:13:25;98888.56;;;7.41;100.00
71145;BME280;58812;47.698;17.726;2023-04-01T05:15:50;98886.28;;;7.54;100.00
71145;BME280;58812;47.698;17.726;2023-04-01T05:18:16;98893.66;;;7.60;100.00
71145;BME280;58812;47.698;17.726;2023-04-01T05:20:52;98893.00;;;7.66;100.00
71145;BME280;58812;47.698;17.726;2023-04-01T05:23:18;98900.69;;;7.78;100.00
71145;BME280;58812;47.698;17.726;2023-04-01T05:25:46;98892.72;;;7.86;100.00
71145;BME280;58812;47.698;17.726;2023-04-01T05:28:11;98893.72;;;7.93;100.00
71145;BME280;58812;47.698;17.726;2023-04-01T05:30:40;98891.75;;;8.03;100.00
71145;BME280;58812;47.698;17.726;2023-04-01T05:33:06;98881.75;;;8.05;100.00
71145;BME280;58812;47.698;17.726;2023-04-01T05:35:31;98884.75;;;8.10;100.00
71145;BME280;58812;47.698;17.726;2023-04-01T05:37:56;98886.44;;;8.19;100.00
71145;BME280;58812;47.698;17.726;2023-04-01T05:40:23;98887.94;;;8.30;99.45
71145;BME280;58812;47.698;17.726;2023-04-01T05:42:48;98894.66;;;8.42;99.22
71145;BME280;58812;47.698;17.726;2023-04-01T05:45:13;98883.66;;;8.45;98.82
71145;BME280;58812;47.698;17.726;2023-04-01T05:47:41;98894.81;;;8.57;98.44
71145;BME280;58812;47.698;17.726;2023-04-01T05:50:08;98887.81;;;8.64;97.99
71145;BME280;58812;47.698;17.726;2023-04-01T05:52:34;98889.16;;;8.68;98.11
71145;BME280;58812;47.698;17.726;2023-04-01T05:54:59;98891.66;;;8.78;98.36
71145;BME280;58812;47.698;17.726;2023-04-01T05:57:25;98891.94;;;8.83;97.60
71145;BME280;58812;47.698;17.726;2023-04-01T05:59:51;98897.28;;;8.99;97.74
71145;BME280;58812;47.698;17.726;2023-04-01T06:02:17;98898.59;;;9.03;97.20
71145;BME280;58812;47.698;17.726;2023-04-01T06:04:44;98900.41;;;9.11;94.77
71145;BME280;58812;47.698;17.726;2023-04-01T06:07:14;98913.41;;;9.22;95.76
71145;BME280;58812;47.698;17.726;2023-04-01T06:09:41;98920.69;;;9.36;94.88
71145;BME280;58812;47.698;17.726;2023-04-01T06:15:29;98918.34;;;9.42;92.28
71145;BME280;58812;47.698;17.726;2023-04-01T06:23:22;98932.31;;;9.60;91.21
71145;BME280;58812;47.698;17.726;2023-04-01T06:26:18;98926.25;;;9.66;91.15
71145;BME280;58812;47.698;17.726;2023-04-01T06:29:06;98920.72;;;9.76;91.26
71145;BME280;58812;47.698;17.726;2023-04-01T06:45:39;98935.47;;;10.57;83.90
71145;BME280;58812;47.698;17.726;2023-04-01T06:56:06;98945.56;;;10.92;78.30
71145;BME280;58812;47.698;17.726;2023-04-01T06:58:37;98944.81;;;10.99;78.90
71145;BME280;58812;47.698;17.726;2023-04-01T07:01:06;98935.03;;;11.06;78.88
71145;BME280;58812;47.698;17.726;2023-04-01T07:03:40;98942.25;;;11.20;78.23
71145;BME280;58812;47.698;17.726;2023-04-01T07:06:14;98938.00;;;11.26;78.18
71145;BME280;58812;47.698;17.726;2023-04-01T07:08:43;98945.16;;;11.48;76.46
71145;BME280;58812;47.698;17.726;2023-04-01T07:11:13;98943.56;;;11.54;75.88
71145;BME280;58812;47.698;17.726;2023-04-01T07:13:57;98940.03;;;11.68;75.42
71145;BME280;58812;47.698;17.726;2023-04-01T07:22:12;98954.31;;;11.83;73.36
71145;BME280;58812;47.698;17.726;2023-04-01T07:24:41;98951.53;;;11.76;73.62
71145;BME280;58812;47.698;17.726;2023-04-01T07:27:11;98960.38;;;12.07;73.91
71145;BME280;58812;47.698;17.726;2023-04-01T07:29:37;98963.91;;;12.43;73.27
71145;BME280;58812;47.698;17.726;2023-04-01T07:32:14;98962.50;;;12.47;72.21
71145;BME280;58812;47.698;17.726;2023-04-01T07:37:37;98964.22;;;12.34;72.00
71145;BME280;58812;47.698;17.726;2023-04-01T07:40:32;98962.16;;;13.00;68.85
71145;BME280;58812;47.698;17.726;2023-04-01T07:43:07;98984.72;;;13.27;68.70
71145;BME280;58812;47.698;17.726;2023-04-01T07:45:56;98974.31;;;13.80;66.51
71145;BME280;58812;47.698;17.726;2023-04-01T07:56:24;98972.34;;;12.83;66.11
71145;BME280;58812;47.698;17.726;2023-04-01T08:01:30;98972.84;;;13.43;65.35
71145;BME280;58812;47.698;17.726;2023-04-01T08:09:19;98981.53;;;14.21;63.24
71145;BME280;58812;47.698;17.726;2023-04-01T08:12:21;98982.53;;;14.67;61.21
71145;BME280;58812;47.698;17.726;2023-04-01T08:15:12;98981.50;;;14.07;62.38
71145;BME280;58812;47.698;17.726;2023-04-01T08:17:54;98994.44;;;14.32;62.00
71145;BME280;58812;47.698;17.726;2023-04-01T08:20:50;98985.75;;;14.43;60.67
71145;BME280;58812;47.698;17.726;2023-04-01T08:23:37;98988.16;;;14.73;61.70
71145;BME280;58812;47.698;17.726;2023-04-01T08:26:36;98984.38;;;14.47;58.01
71145;BME280;58812;47.698;17.726;2023-04-01T08:29:21;98994.84;;;13.53;60.44
71145;BME280;58812;47.698;17.726;2023-04-01T08:32:00;98984.22;;;14.21;60.17
71145;BME280;58812;47.698;17.726;2023-04-01T08:34:34;98984.03;;;14.22;59.95
71145;BME280;58812;47.698;17.726;2023-04-01T08:37:05;98988.84;;;14.40;60.34
71145;BME280;58812;47.698;17.726;2023-04-01T08:39:37;98990.81;;;14.53;59.62
71145;BME280;58812;47.698;17.726;2023-04-01T08:56:20;98977.44;;;14.31;59.61
71145;BME280;58812;47.698;17.726;2023-04-01T09:05:04;98981.34;;;15.23;59.89
71145;BME280;58812;47.698;17.726;2023-04-01T09:18:37;98984.22;;;14.82;56.13
71145;BME280;58812;47.698;17.726;2023-04-01T09:23:53;98993.16;;;15.29;54.40
71145;BME280;58812;47.698;17.726;2023-04-01T09:32:46;98978.84;;;15.48;53.00
71145;BME280;58812;47.698;17.726;2023-04-01T09:46:04;98985.19;;;14.00;57.59
71145;BME280;58812;47.698;17.726;2023-04-01T09:48:59;98991.44;;;14.07;57.63
71145;BME280;58812;47.698;17.726;2023-04-01T09:51:51;98989.63;;;14.88;54.53
71145;BME280;58812;47.698;17.726;2023-04-01T09:54:36;98991.66;;;14.66;55.46
71145;BME280;58812;47.698;17.726;2023-04-01T10:00:23;98990.16;;;14.51;54.42
71145;BME280;58812;47.698;17.726;2023-04-01T10:05:33;98989.22;;;16.67;49.88
71145;BME280;58812;47.698;17.726;2023-04-01T10:08:37;99004.53;;;15.70;51.55
71145;BME280;58812;47.698;17.726;2023-04-01T10:17:35;98981.34;;;14.29;55.13
71145;BME280;58812;47.698;17.726;2023-04-01T10:30:59;98989.22;;;15.25;52.85
71145;BME280;58812;47.698;17.726;2023-04-01T10:36:46;98985.47;;;14.79;53.46
71145;BME280;58812;47.698;17.726;2023-04-01T10:39:32;98982.91;;;14.51;52.58
71145;BME280;58812;47.698;17.726;2023-04-01T10:45:10;98981.72;;;14.74;52.48
71145;BME280;58812;47.698;17.726;2023-04-01T11:04:51;98980.03;;;14.53;52.79
71145;BME280;58812;47.698;17.726;2023-04-01T11:10:41;98971.37;;;14.77;53.37
71145;BME280;58812;47.698;17.726;2023-04-01T11:45:34;98972.44;;;14.22;53.17
71145;BME280;58812;47.698;17.726;2023-04-01T11:48:23;98969.06;;;14.74;53.12
71145;BME280;58812;47.698;17.726;2023-04-01T11:53:42;98976.72;;;16.35;50.29
71145;BME280;58812;47.698;17.726;2023-04-01T12:13:30;98966.81;;;15.17;49.07
71145;BME280;58812;47.698;17.726;2023-04-01T12:19:14;98966.25;;;16.13;47.52
71145;BME280;58812;47.698;17.726;2023-04-01T12:31:13;98972.03;;;16.17;45.66
71145;BME280;58812;47.698;17.726;2023-04-01T12:34:14;98975.88;;;16.79;44.82
71145;BME280;58812;47.698;17.726;2023-04-01T12:37:10;98976.06;;;16.84;44.27
71145;BME280;58812;47.698;17.726;2023-04-01T12:51:20;98965.97;;;15.63;48.36
71145;BME280;58812;47.698;17.726;2023-04-01T13:15:40;98967.09;;;16.07;46.81
71145;BME280;58812;47.698;17.726;2023-04-01T13:21:19;98964.28;;;15.75;47.62
71145;BME280;58812;47.698;17.726;2023-04-01T13:29:36;98968.72;;;16.91;44.94
71145;BME280;58812;47.698;17.726;2023-04-01T13:34:49;98957.72;;;16.48;43.62
71145;BME280;58812;47.698;17.726;2023-04-01T13:43:23;98967.16;;;16.39;43.97
71145;BME280;58812;47.698;17.726;2023-04-01T13:56:48;98958.75;;;16.15;45.44
71145;BME280;58812;47.698;17.726;2023-04-01T14:24:08;98943.00;;;16.82;43.91
71145;BME280;58812;47.698;17.726;2023-04-01T14:26:58;98953.28;;;16.98;43.44
71145;BME280;58812;47.698;17.726;2023-04-01T14:43:47;98952.00;;;16.38;42.57
71145;BME280;58812;47.698;17.726;2023-04-01T14:49:28;98951.53;;;16.41;42.11
71145;BME280;58812;47.698;17.726;2023-04-01T14:51:55;98949.41;;;16.11;42.93
71145;BME280;58812;47.698;17.726;2023-04-01T14:54:36;98947.03;;;16.28;42.78
71145;BME280;58812;47.698;17.726;2023-04-01T14:59:28;98948.66;;;16.36;43.12
71145;BME280;58812;47.698;17.726;2023-04-01T15:02:10;98955.75;;;16.30;43.57
71145;BME280;58812;47.698;17.726;2023-04-01T15:13:13;98942.06;;;16.32;43.62
71145;BME280;58812;47.698;17.726;2023-04-01T15:19:10;98938.25;;;16.01;44.01
71145;BME280;58812;47.698;17.726;2023-04-01T15:21:54;98938.25;;;16.01;44.43
71145;BME280;58812;47.698;17.726;2023-04-01T15:29:47;98943.44;;;16.02;44.48
71145;BME280;58812;47.698;17.726;2023-04-01T15:37:53;98953.34;;;16.15;43.95
71145;BME280;58812;47.698;17.726;2023-04-01T15:40:28;98952.81;;;15.87;43.88
71145;BME280;58812;47.698;17.726;2023-04-01T15:43:24;98956.09;;;16.02;43.58
71145;BME280;58812;47.698;17.726;2023-04-01T15:48:38;98962.22;;;15.78;43.85
71145;BME280;58812;47.698;17.726;2023-04-01T16:01:54;98964.50;;;15.61;44.67
71145;BME280;58812;47.698;17.726;2023-04-01T16:04:48;98970.09;;;15.72;44.98
71145;BME280;58812;47.698;17.726;2023-04-01T16:07:37;98971.78;;;15.47;44.33
71145;BME280;58812;47.698;17.726;2023-04-01T16:18:34;98981.34;;;15.03;46.17
71145;BME280;58812;47.698;17.726;2023-04-01T16:21:11;98988.81;;;15.01;46.19
71145;BME280;58812;47.698;17.726;2023-04-01T16:32:31;98990.00;;;14.65;48.28
71145;BME280;58812;47.698;17.726;2023-04-01T16:48:28;98999.75;;;13.77;50.20
71145;BME280;58812;47.698;17.726;2023-04-01T16:51:01;98994.91;;;13.59;51.30
71145;BME280;58812;47.698;17.726;2023-04-01T16:53:36;98998.53;;;13.52;51.02
71145;BME280;58812;47.698;17.726;2023-04-01T16:58:37;99004.00;;;13.30;51.99
71145;BME280;58812;47.698;17.726;2023-04-01T17:03:45;99003.16;;;13.08;53.51
71145;BME280;58812;47.698;17.726;2023-04-01T17:06:24;99001.81;;;12.98;53.91
71145;BME280;58812;47.698;17.726;2023-04-01T17:14:59;99006.94;;;12.71;55.25
71145;BME280;58812;47.698;17.726;2023-04-01T17:23:37;99016.03;;;12.34;58.16
71145;BME280;58812;47.698;17.726;2023-04-01T17:26:20;99020.69;;;12.11;58.58
71145;BME280;58812;47.698;17.726;2023-04-01T17:29:20;99024.41;;;11.95;59.46
71145;BME280;58812;47.698;17.726;2023-04-01T17:34:53;99026.78;;;11.75;61.41
71145;BME280;58812;47.698;17.726;2023-04-01T17:37:38;99031.47;;;11.58;63.58
71145;BME280;58812;47.698;17.726;2023-04-01T17:43:08;99037.41;;;11.16;66.13
71145;BME280;58812;47.698;17.726;2023-04-01T17:45:53;99037.28;;;11.09;65.08
71145;BME280;58812;47.698;17.726;2023-04-01T17:52:23;99046.88;;;11.04;66.00
71145;BME280;58812;47.698;17.726;2023-04-01T17:57:52;99055.03;;;10.87;68.02
71145;BME280;58812;47.698;17.726;2023-04-01T18:00:47;99057.94;;;10.78;68.34
71145;BME280;58812;47.698;17.726;2023-04-01T18:06:21;99073.94;;;10.55;70.72
71145;BME280;58812;47.698;17.726;2023-04-01T18:09:00;99073.03;;;10.39;71.48
71145;BME280;58812;47.698;17.726;2023-04-01T18:14:23;99098.16;;;10.22;70.66
71145;BME280;58812;47.698;17.726;2023-04-01T18:23:09;99103.09;;;10.50;68.51
71145;BME280;58812;47.698;17.726;2023-04-01T18:25:41;99113.38;;;10.61;68.69
71145;BME280;58812;47.698;17.726;2023-04-01T18:28:35;99104.44;;;10.77;67.60
71145;BME280;58812;47.698;17.726;2023-04-01T18:33:41;99110.13;;;11.05;66.09
71145;BME280;58812;47.698;17.726;2023-04-01T18:36:33;99122.63;;;11.12;65.65
71145;BME280;58812;47.698;17.726;2023-04-01T18:39:19;99119.13;;;11.12;65.90
71145;BME280;58812;47.698;17.726;2023-04-01T18:42:06;99127.22;;;11.04;65.64
71145;BME280;58812;47.698;17.726;2023-04-01T18:44:46;99123.72;;;11.03;65.54
71145;BME280;58812;47.698;17.726;2023-04-01T18:47:37;99131.25;;;11.00;65.75
71145;BME280;58812;47.698;17.726;2023-04-01T18:52:44;99137.97;;;10.95;66.00
71145;BME280;58812;47.698;17.726;2023-04-01T18:55:54;99131.31;;;10.91;66.49
71145;BME280;58812;47.698;17.726;2023-04-01T19:04:17;99152.03;;;10.98;67.64
71145;BME280;58812;47.698;17.726;2023-04-01T19:06:48;99158.75;;;10.93;68.11
71145;BME280;58812;47.698;17.726;2023-04-01T19:09:22;99157.22;;;10.91;68.19
71145;BME280;58812;47.698;17.726;2023-04-01T19:15:13;99167.16;;;10.82;68.77
71145;BME280;58812;47.698;17.726;2023-04-01T19:25:40;99174.53;;;10.80;69.94
71145;BME280;58812;47.698;17.726;2023-04-01T19:28:51;99176.41;;;10.80;69.96
71145;BME280;58812;47.698;17.726;2023-04-01T19:34:25;99175.81;;;10.92;69.56
71145;BME280;58812;47.698;17.726;2023-04-01T19:37:10;99184.31;;;10.96;69.79
71145;BME280;58812;47.698;17.726;2023-04-01T19:42:37;99185.56;;;10.85;70.51
71145;BME280;58812;47.698;17.726;2023-04-01T19:45:29;99192.28;;;10.81;70.82
71145;BME280;58812;47.698;17.726;2023-04-01T19:56:24;99209.88;;;10.76;72.62
71145;BME280;58812;47.698;17.726;2023-04-01T19:59:16;99214.56;;;10.74;73.12
71145;BME280;58812;47.698;17.726;2023-04-01T20:01:49;99218.41;;;10.71;73.38
71145;BME280;58812;47.698;17.726;2023-04-01T20:07:36;99217.63;;;10.62;74.19
71145;BME280;58812;47.698;17.726;2023-04-01T20:10:38;99216.09;;;10.60;74.49
71145;BME280;58812;47.698;17.726;2023-04-01T20:13:13;99219.12;;;10.57;74.46
71145;BME280;58812;47.698;17.726;2023-04-01T20:16:02;99217.81;;;10.53;74.68
71145;BME280;58812;47.698;17.726;2023-04-01T20:18:57;99217.63;;;10.54;74.55
71145;BME280;58812;47.698;17.726;2023-04-01T20:21:43;99205.06;;;10.55;74.35
71145;BME280;58812;47.698;17.726;2023-04-01T20:26:50;99209.81;;;10.45;76.22
71145;BME280;58812;47.698;17.726;2023-04-01T20:32:10;99208.81;;;10.37;76.34
71145;BME280;58812;47.698;17.726;2023-04-01T20:37:40;99219.88;;;10.26;77.29
71145;BME280;58812;47.698;17.726;2023-04-01T20:51:30;99216.53;;;10.16;76.73
71145;BME280;58812;47.698;17.726;2023-04-01T20:54:24;99215.19;;;10.12;77.00
71145;BME280;58812;47.698;17.726;2023-04-01T20:57:21;99220.88;;;10.09;77.14
71145;BME280;58812;47.698;17.726;2023-04-01T21:02:47;99219.72;;;10.03;77.03
71145;BME280;58812;47.698;17.726;2023-04-01T21:05:30;99223.22;;;10.04;76.84
71145;BME280;58812;47.698;17.726;2023-04-01T21:22:19;99244.28;;;9.90;78.62
71145;BME280;58812;47.698;17.726;2023-04-01T21:41:08;99264.16;;;9.80;78.73
71145;BME280;58812;47.698;17.726;2023-04-01T22:01:01;99273.00;;;9.56;80.53
71145;BME280;58812;47.698;17.726;2023-04-01T22:06:22;99267.47;;;9.49;81.03
71145;BME280;58812;47.698;17.726;2023-04-01T22:11:37;99271.63;;;9.52;80.96
71145;BME280;58812;47.698;17.726;2023-04-01T22:14:17;99279.00;;;9.50;81.29
71145;BME280;58812;47.698;17.726;2023-04-01T22:19:28;99288.62;;;9.43;81.83
71145;BME280;58812;47.698;17.726;2023-04-01T22:25:00;99293.47;;;9.39;81.65
71145;BME280;58812;47.698;17.726;2023-04-01T22:27:47;99293.47;;;9.39;81.93
71145;BME280;58812;47.698;17.726;2023-04-01T22:30:26;99298.31;;;9.35;82.27
71145;BME280;58812;47.698;17.726;2023-04-01T22:33:05;99290.97;;;9.38;82.13
71145;BME280;58812;47.698;17.726;2023-04-01T22:38:55;99292.97;;;9.35;82.22
71145;BME280;58812;47.698;17.726;2023-04-01T22:41:39;99293.78;;;9.36;82.45
71145;BME280;58812;47.698;17.726;2023-04-01T22:50:00;99301.63;;;9.29;82.85
71145;BME280;58812;47.698;17.726;2023-04-01T22:52:38;99295.91;;;9.24;83.26
71145;BME280;58812;47.698;17.726;2023-04-01T22:55:29;99294.94;;;9.25;83.07
71145;BME280;58812;47.698;17.726;2023-04-01T22:58:07;99300.28;;;9.25;83.20
71145;BME280;58812;47.698;17.726;2023-04-01T23:00:50;99301.97;;;9.26;83.20
71145;BME280;58812;47.698;17.726;2023-04-01T23:03:25;99307.78;;;9.30;82.97
71145;BME280;58812;47.698;17.726;2023-04-01T23:05:56;99310.47;;;9.30;83.01
71145;BME280;58812;47.698;17.726;2023-04-01T23:08:58;99308.63;;;9.30;83.06
71145;BME280;58812;47.698;17.726;2023-04-01T23:11:31;99310.31;;;9.31;83.06
71145;BME280;58812;47.698;17.726;2023-04-01T23:20:01;99329.34;;;9.28;83.28